This is the latest recevied weather packets stored in our database for station/object KC3SOZ. If no packets are shown the sender has not sent any weather packets the latest 10 day(s).
| Time | Temp. | Humidity | Pressure | Rain* | Wind** | Luminosity | Snow |
|---|---|---|---|---|---|---|---|
| 1777979678 | 13.89° C | 91% | 1011.1 hPa | 0 mm | - | 80 W/m² | - |
| 1777979375 | 13.33° C | 91% | 1010.9 hPa | 0 mm | - | 71 W/m² | - |
| 1777979072 | 12.78° C | 91% | 1011.1 hPa | 0 mm | - | 57 W/m² | - |
| 1777978769 | 12.78° C | 94% | 1010.7 hPa | 0 mm | - | 51 W/m² | - |
| 1777978465 | 11.67° C | 96% | 1011 hPa | 0 mm | - | 43 W/m² | - |
| 1777978161 | 11.67° C | 95% | 1011 hPa | 0 mm | - | 38 W/m² | - |
| 1777977858 | 12.22° C | 91% | 1010.9 hPa | 0 mm | - | 35 W/m² | - |
| 1777977555 | 12.78° C | 88% | 1010.9 hPa | 0 mm | - | 29 W/m² | - |
| 1777977253 | 12.22° C | 91% | 1010.9 hPa | 0 mm | - | 25 W/m² | - |
| 1777976949 | 12.22° C | 90% | 1010.9 hPa | 0 mm | - | 21 W/m² | - |
| 1777976647 | 11.67° C | 91% | 1010.7 hPa | 0 mm | - | 18 W/m² | - |
| 1777976343 | 12.22° C | 89% | 1010.6 hPa | 0 mm | - | 14 W/m² | - |
| 1777976037 | 11.67° C | 92% | 1010.7 hPa | 0 mm | - | 10 W/m² | - |
| 1777975734 | 11.67° C | 92% | 1010.5 hPa | 0 mm | - | 7 W/m² | - |
| 1777975430 | 11.11° C | 97% | 1010.4 hPa | 0 mm | - | 4 W/m² | - |
| 1777975126 | 11.67° C | 93% | 1010.5 hPa | 0 mm | - | 2 W/m² | - |
| 1777974824 | 12.22° C | 89% | 1010.6 hPa | 0 mm | - | 1 W/m² | - |
| 1777974519 | 12.78° C | 89% | 1010.4 hPa | 0 mm | - | 1 W/m² | - |
| 1777974217 | 13.33° C | 83% | 1010.4 hPa | 0 mm | - | 0 W/m² | - |
| 1777973912 | 13.89° C | 83% | 1010.6 hPa | 0 mm | - | 0 W/m² | - |
| 1777973610 | 13.89° C | 83% | 1010.4 hPa | 0 mm | - | 0 W/m² | - |
| 1777973307 | 13.89° C | 83% | 1010.5 hPa | 0 mm | - | 0 W/m² | - |
| 1777973005 | 14.44° C | 82% | 1010.2 hPa | 0 mm | - | 0 W/m² | - |
| 1777972702 | 13.89° C | 82% | 1010.2 hPa | 0 mm | - | 0 W/m² | - |
| 1777972400 | 15° C | 81% | 1010.4 hPa | 0 mm | - | 0 W/m² | - |
* Rain latest hour (hover to see other rain measurements)
** Current wind speed in m/s (hover to see current wind gust speed)